Manzanillo Airport, Mexico

6:52 PM CDT on October 24, 2014 (GMT -0500)
Playa De Oro International | Change Station
CLOSE
Current Station
Airport
Location: Manzanillo Airport,
Elevation: 26 ft
Nearby Weather Stations

Elev 26 ft 19.14 °N, 104.56 °W | Updated 1 hour ago

Partly Cloudy
Partly Cloudy
86 °F
Feels Like 97 °F
N
12
Wind Variable Wind from West

Today
High -- | Low -- °F
--% Chance of Precip.
Yesterday
High -- | Low -- °F
Precip. -- in
7:55 AM 7:29 PM
New Moon, 1% visible
Pressure 29.78 in
Visibility 10.0 miles
Clouds Few 2000 ft
Heat Index 97 °F
Dew Point 77 °F
Humidity 74%
Rainfall 0.00 in
Snow Depth Not available.
UV 2 out of 12
Pollen Not available.
Air Quality Not available.
Flu Activity Not available.
METAR MMZO 242245Z 26010KT 10SM FEW020 30/25 A2978 RMK 8/100 HZY

More Conditions Fewer Conditions

Pressure 29.78 in
Visibility 10.0 miles
Clouds Few 2000 ft
Heat Index 97 °F
Dew Point 77 °F
Humidity 74%
Rainfall 0.00 in
Snow Depth Not available.
UV 2 out of 12
Pollen Not available.
Air Quality Not available.
Flu Activity Not available.
METAR MMZO 242245Z 26010KT 10SM FEW020 30/25 A2978 RMK 8/100 HZY

More Conditions Fewer Conditions

10-Day Weather Forecast

Almanac

Astronomy

Oct. 24, 2014 Rise Set
Actual Time 7:55 AM CDT 7:29 PM CDT
Civil Twilight 7:33 AM CDT 7:51 PM CDT
Nautical Twilight 7:07 AM CDT 8:17 PM CDT
Astronomical Twilight 6:41 AM CDT 8:42 PM CDT
Moon 8:33 AM CDT 8:17 PM CDT
Length of Visible Light 12h 18m
Length of Day
11h 33m
Tomorrow will be 0m 59s shorter.
New Moon, 1% of the Moon is Illuminated
Today
New Moon
Oct 30
First Quarter
Nov 6
Full
Nov 14
Last Quarter
Nov 22
New

Today's Extremes

Country Highs Country Lows

Community

WunderPhotos

Upload Photos

1,764,713 photos uploaded!

Nearby

Snow Depth

Not available.

Earthquake Activity

City Distance Mag. Time & Date
No recent earthquake activity has been reported nearby.
Minimum magnitude displayed is 2.5.

Coastal Water Temperatures

Place Temperature
No Stations Reporting

Nearby Weather Stations